createdAt,value
2019-01-17T00:00:04.906Z,0.60
2019-01-17T00:05:37.474Z,0.00
2019-01-17T00:11:04.684Z,0.00
2019-01-17T00:16:26.829Z,0.50
2019-01-17T00:21:49.704Z,1.00
2019-01-17T00:27:21.699Z,1.00
2019-01-17T00:32:43.761Z,1.00
2019-01-17T00:38:07.652Z,0.00
2019-01-17T00:43:23.984Z,1.00
2019-01-17T00:48:46.007Z,0.60
2019-01-17T00:54:21.256Z,1.00
2019-01-17T00:59:53.256Z,0.00
2019-01-17T01:05:15.933Z,0.25
2019-01-17T01:10:30.278Z,0.40
2019-01-17T01:15:54.986Z,0.50
2019-01-17T01:21:21.098Z,0.00
2019-01-17T01:26:41.763Z,1.00
2019-01-17T01:32:07.754Z,0.75
2019-01-17T01:37:36.869Z,0.00
2019-01-17T01:42:58.461Z,0.00
2019-01-17T01:48:24.497Z,0.00
2019-01-17T01:53:28.624Z,0.00
2019-01-17T01:58:32.667Z,1.00
2019-01-17T02:03:36.742Z,1.00
2019-01-17T02:08:40.906Z,0.75
2019-01-17T02:13:45.802Z,0.00
2019-01-17T02:18:50.157Z,0.00
2019-01-17T02:23:54.220Z,0.00
2019-01-17T02:28:58.250Z,0.80
2019-01-17T02:34:02.407Z,0.00
2019-01-17T02:39:08.299Z,0.40
2019-01-17T02:44:12.371Z,0.00
2019-01-17T02:49:16.474Z,0.20
2019-01-17T02:54:20.588Z,0.60
2019-01-17T02:59:25.491Z,0.00
2019-01-17T03:04:29.586Z,0.00
2019-01-17T03:09:33.695Z,1.00
2019-01-17T03:14:37.728Z,0.00
2019-01-17T03:19:41.840Z,0.00
2019-01-17T03:24:45.922Z,1.00
2019-01-17T03:29:50.107Z,0.80
2019-01-17T03:34:54.246Z,1.00
2019-01-17T03:39:58.349Z,0.00
2019-01-17T03:45:02.734Z,0.20
2019-01-17T03:50:08.951Z,0.60
2019-01-17T03:55:15.733Z,0.40
2019-01-17T04:00:21.397Z,0.00
2019-01-17T04:05:25.485Z,1.00
2019-01-17T04:10:29.505Z,1.00
2019-01-17T04:15:33.521Z,0.00
2019-01-17T04:20:37.702Z,0.00
2019-01-17T04:25:41.797Z,0.00
2019-01-17T04:30:45.966Z,1.00
2019-01-17T04:35:50.156Z,0.00
2019-01-17T04:40:54.171Z,0.80
2019-01-17T04:45:58.345Z,0.00
2019-01-17T04:51:02.402Z,0.50
2019-01-17T04:56:06.644Z,0.00
2019-01-17T05:01:10.778Z,1.00
2019-01-17T05:06:14.849Z,1.00
2019-01-17T05:11:18.930Z,0.25
2019-01-17T05:16:23.089Z,1.00
2019-01-17T05:21:27.207Z,2.00
2019-01-17T05:26:31.336Z,1.00
2019-01-17T05:31:35.382Z,0.40
2019-01-17T05:36:39.526Z,0.25
2019-01-17T05:41:43.569Z,0.00
2019-01-17T05:46:47.750Z,0.75
2019-01-17T05:51:51.932Z,1.00
2019-01-17T05:56:56.001Z,0.00
2019-01-17T06:02:00.184Z,0.00
2019-01-17T06:07:04.321Z,2.20
2019-01-17T06:12:08.525Z,0.40
2019-01-17T06:17:12.575Z,1.00
2019-01-17T06:22:16.917Z,0.00
2019-01-17T06:27:21.029Z,1.20
2019-01-17T06:32:25.067Z,0.00
2019-01-17T06:37:29.201Z,0.80
2019-01-17T06:42:33.328Z,0.00
2019-01-17T06:47:37.510Z,0.00
2019-01-17T06:52:41.676Z,0.00
2019-01-17T06:57:45.762Z,0.80
2019-01-17T07:02:49.956Z,0.00
2019-01-17T07:07:54.238Z,1.00
2019-01-17T07:12:58.355Z,1.20
2019-01-17T07:18:02.398Z,0.50
2019-01-17T07:23:06.648Z,0.50
2019-01-17T07:28:10.824Z,0.00
2019-01-17T07:33:14.950Z,0.00
2019-01-17T07:38:19.144Z,0.00
2019-01-17T07:43:23.331Z,0.00
2019-01-17T07:48:27.462Z,0.00
2019-01-17T07:53:31.678Z,0.00
2019-01-17T07:58:35.924Z,1.00
2019-01-17T08:03:39.923Z,4.00
2019-01-17T08:08:44.063Z,3.25
2019-01-17T08:13:48.257Z,4.50
2019-01-17T08:18:53.633Z,4.00
2019-01-17T08:23:57.641Z,3.50
2019-01-17T08:29:01.835Z,3.00
2019-01-17T08:34:05.991Z,2.50
2019-01-17T08:39:10.209Z,3.00
2019-01-17T08:44:14.340Z,2.25
2019-01-17T08:49:18.563Z,3.00
2019-01-17T08:54:22.621Z,3.00
2019-01-17T08:59:26.783Z,2.60
2019-01-17T09:04:31.196Z,3.00
2019-01-17T09:09:35.245Z,2.80
2019-01-17T09:14:39.346Z,1.75
2019-01-17T09:19:43.692Z,0.50
2019-01-17T09:24:47.744Z,1.00
2019-01-17T09:29:51.803Z,1.25
2019-01-17T09:34:55.869Z,2.00
2019-01-17T09:39:59.919Z,3.00
2019-01-17T09:45:04.611Z,2.00
2019-01-17T09:50:12.962Z,2.00
2019-01-17T09:55:17.148Z,2.00
2019-01-17T10:00:26.348Z,1.00
2019-01-17T10:05:30.483Z,1.00
2019-01-17T10:10:34.644Z,0.75
2019-01-17T10:15:58.022Z,1.20
2019-01-17T10:21:25.840Z,1.00
2019-01-17T10:26:52.275Z,1.25
2019-01-17T10:32:18.121Z,1.00
2019-01-17T10:37:55.286Z,1.00
2019-01-17T10:43:15.710Z,1.80
2019-01-17T10:48:59.966Z,0.50
2019-01-17T10:54:22.345Z,1.00
2019-01-17T10:59:53.690Z,1.00
2019-01-17T11:05:36.646Z,0.50
2019-01-17T11:11:23.791Z,1.00
2019-01-17T11:17:30.130Z,0.80
2019-01-17T11:23:10.448Z,1.00
2019-01-17T11:28:52.590Z,1.00
2019-01-17T11:34:35.838Z,2.00
2019-01-17T11:40:08.717Z,0.00
2019-01-17T11:45:50.557Z,1.00
2019-01-17T11:51:39.204Z,0.00
2019-01-17T11:57:27.603Z,0.00
2019-01-17T12:03:27.916Z,0.50
2019-01-17T12:08:32.175Z,0.00
2019-01-17T12:13:36.200Z,1.00
2019-01-17T12:18:40.231Z,1.00
2019-01-17T12:23:44.320Z,0.00
2019-01-17T12:28:48.445Z,0.40
2019-01-17T12:33:52.445Z,0.00
2019-01-17T12:38:56.464Z,0.25
2019-01-17T12:44:00.559Z,0.20
2019-01-17T12:49:05.573Z,1.00
2019-01-17T12:54:09.757Z,0.75
2019-01-17T12:59:13.936Z,0.00
2019-01-17T13:04:18.109Z,0.00
2019-01-17T13:09:22.517Z,0.00
2019-01-17T13:14:26.653Z,0.00
2019-01-17T13:19:30.829Z,0.00
2019-01-17T13:24:34.831Z,0.00
2019-01-17T13:29:38.845Z,0.00
2019-01-17T13:34:42.841Z,0.00
2019-01-17T13:39:46.944Z,0.00
2019-01-17T13:44:51.060Z,0.00
2019-01-17T13:49:55.063Z,0.00
2019-01-17T13:54:59.080Z,0.00
2019-01-17T14:00:03.431Z,0.00
2019-01-17T14:05:07.666Z,0.00
2019-01-17T14:10:11.885Z,0.00
2019-01-17T14:15:18.869Z,0.00
2019-01-17T14:20:22.955Z,0.00
2019-01-17T14:25:27.057Z,0.00
2019-01-17T14:30:32.694Z,0.00
2019-01-17T14:35:36.777Z,0.00
2019-01-17T14:40:40.884Z,0.00
2019-01-17T14:45:44.910Z,0.00
2019-01-17T14:50:49.006Z,0.00
2019-01-17T14:55:53.075Z,0.00
2019-01-17T15:00:57.160Z,0.00
2019-01-17T15:06:01.253Z,0.00
2019-01-17T15:11:05.429Z,0.00
2019-01-17T15:16:09.606Z,0.00
2019-01-17T15:21:13.695Z,0.00
2019-01-17T15:26:17.717Z,0.00
2019-01-17T15:31:21.882Z,0.00
2019-01-17T15:36:25.977Z,0.00
2019-01-17T15:41:30.002Z,0.00
2019-01-17T15:46:34.102Z,0.00
2019-01-17T15:51:38.212Z,0.00
2019-01-17T15:56:42.356Z,0.00
2019-01-17T16:01:46.521Z,0.00
2019-01-17T16:06:50.710Z,0.00
2019-01-17T16:11:54.727Z,0.00
2019-01-17T16:16:58.734Z,0.00
2019-01-17T16:22:02.887Z,0.00
2019-01-17T16:27:07.459Z,0.00
2019-01-17T16:32:11.911Z,0.00
2019-01-17T16:37:16.026Z,0.00
2019-01-17T16:42:20.106Z,0.00
2019-01-17T16:47:24.244Z,0.00
2019-01-17T16:52:28.329Z,0.00
2019-01-17T16:57:32.446Z,0.00
2019-01-17T17:02:36.549Z,0.25
2019-01-17T17:07:40.626Z,0.00
2019-01-17T17:12:44.722Z,1.50
2019-01-17T17:17:48.834Z,2.00
2019-01-17T17:22:53.185Z,5.25
2019-01-17T17:27:57.199Z,4.40
2019-01-17T17:33:01.224Z,3.00
2019-01-17T17:38:05.507Z,1.00
2019-01-17T17:43:09.630Z,2.00
2019-01-17T17:48:13.737Z,1.00
2019-01-17T17:53:17.890Z,0.25
2019-01-17T17:58:21.941Z,1.00
2019-01-17T18:03:25.974Z,1.00
2019-01-17T18:08:30.106Z,0.00
2019-01-17T18:13:34.242Z,0.00
2019-01-17T18:18:38.418Z,0.00
2019-01-17T18:23:42.416Z,0.00
2019-01-17T18:28:46.568Z,0.00
2019-01-17T18:33:51.101Z,0.00
2019-01-17T18:38:55.302Z,0.00
2019-01-17T18:43:59.424Z,0.00
2019-01-17T18:49:03.592Z,0.00
2019-01-17T18:54:07.904Z,0.00
2019-01-17T18:59:12.226Z,0.00
2019-01-17T19:04:16.328Z,0.00
2019-01-17T19:09:20.344Z,0.00
2019-01-17T19:14:24.431Z,0.00
2019-01-17T19:19:28.530Z,0.00
2019-01-17T19:24:32.627Z,0.00
2019-01-17T19:29:36.711Z,0.00
2019-01-17T19:34:41.521Z,0.00
2019-01-17T19:39:45.684Z,0.00
2019-01-17T19:44:49.683Z,0.00
2019-01-17T19:49:53.762Z,0.00
2019-01-17T19:54:57.766Z,0.00
2019-01-17T20:00:01.786Z,0.00
2019-01-17T20:05:07.831Z,0.00
2019-01-17T20:10:18.025Z,0.00
2019-01-17T20:15:22.232Z,0.00
2019-01-17T20:20:31.910Z,0.00
2019-01-17T20:25:32.828Z,0.00
2019-01-17T20:30:37.141Z,0.00
2019-01-17T20:35:41.178Z,0.00
2019-01-17T20:40:45.385Z,0.00
2019-01-17T20:45:49.399Z,0.00
2019-01-17T20:50:53.402Z,0.00
2019-01-17T20:55:57.606Z,0.00
2019-01-17T21:01:37.128Z,0.00
2019-01-17T21:06:41.314Z,0.00
2019-01-17T21:11:45.419Z,0.00
2019-01-17T21:16:49.565Z,0.00
2019-01-17T21:21:53.789Z,0.00
2019-01-17T21:26:57.809Z,0.00
2019-01-17T21:32:01.892Z,0.00
2019-01-17T21:37:05.990Z,0.00
2019-01-17T21:42:10.057Z,0.00
2019-01-17T21:47:14.110Z,0.00
2019-01-17T21:52:18.205Z,0.00
2019-01-17T21:57:22.263Z,0.00
2019-01-17T22:02:26.382Z,0.00
2019-01-17T22:07:30.427Z,0.00
2019-01-17T22:12:34.607Z,0.00
2019-01-17T22:17:38.717Z,0.00
2019-01-17T22:22:42.938Z,0.00
2019-01-17T22:27:47.970Z,0.00
2019-01-17T22:32:52.347Z,0.00
2019-01-17T22:37:56.507Z,0.00
2019-01-17T22:43:00.583Z,0.00
2019-01-17T22:48:04.865Z,0.00
2019-01-17T22:53:09.067Z,0.00
2019-01-17T22:58:13.182Z,0.00
2019-01-17T23:03:17.440Z,0.00
2019-01-17T23:08:21.652Z,0.00
2019-01-17T23:13:25.719Z,0.00
2019-01-17T23:18:29.953Z,0.00
2019-01-17T23:23:33.974Z,0.00
2019-01-17T23:28:38.060Z,0.00
2019-01-17T23:33:42.209Z,0.00
2019-01-17T23:38:46.431Z,0.00
2019-01-17T23:43:50.627Z,0.00
2019-01-17T23:48:54.903Z,0.00
2019-01-17T23:53:59.995Z,0.00
2019-01-17T23:59:04.301Z,0.00
